Country
Station

 

Weather  for  Fassberg  -  Germany    Germany

  
20 °C (68 °F)
    
 
 

Current METAR for Fassberg is :

ETHS 201920Z 04002KT 9999 FEW020 SCT075 BKN290 20/15 Q1012 BLU+

 

This is a report for Fassberg - Germany.
 
The report was made one hour and 4 minutes ago, at 19:20 UTC .
The wind was blowing at a speed of 1.0 meters per second (2.3 miles per hour) from northeast (040°).
 
The temperature was 20 °C (68 °F), with a dew-point at 15 °C (59 °F).
The atmospheric pressure was 1012 hPa (29.88 inHg).
The relative humidity was 72.9%.
 
There were a few clouds at a height of 610 meters (2000 feet), scattered clouds at a height of 2286 meters (7500 feet) and broken clouds at a height of 8839 meters (29000 feet).
 
The overall visibility was greater than 10 kilometers (6.2 miles).
 

 
 
 
 

Country :   A   B   C   D   E   F   G   H   I   J   K   L   M   N   O   P   Q   R   S   T   U   V   W   Y   Z

 

Site Info  |  Disclaimer  |  Credits  |  Privacy
Contact us  |  Add to favorites
© 2013-2019 METARs - All rights reserved